Terminal Aerodrome Forecast
Issued by NWS

Home | Current Version | Previous Version | Text Only | Print | Product List | Glossary Off
Versions: 1 2 3 4 5 6 7 8 9 10 11 12 13 14 15 16

000
FTUS43 KMPX 200500
TAFRWF
TAF
KRWF 200527Z 2006/2106 24006KT P6SM SCT250
      TEMPO 2006/2009 4SM BR
     FM200900 29007KT P6SM SCT120 BKN250
     FM202300 30013G20KT P6SM BKN045 OVC080
      TEMPO 2023/2101 4SM TSRA OVC035CB
     FM210100 31007KT P6SM SCT045 BKN120=

USA.gov is the U.S. government's official web portal to all federal, state and local government web resources and services.